sensor_id;sensor_type;location;lat;lon;timestamp;pressure;altitude;pressure_sealevel;temperature;humidity
76374;BME280;65197;50.164;8.012;2023-05-29T00:00:13;95774.19;;;12.88;71.14
76374;BME280;65197;50.164;8.012;2023-05-29T00:02:41;95771.63;;;12.88;71.45
76374;BME280;65197;50.164;8.012;2023-05-29T00:05:12;95769.81;;;12.90;70.69
76374;BME280;65197;50.164;8.012;2023-05-29T00:07:38;95777.50;;;12.90;71.00
76374;BME280;65197;50.164;8.012;2023-05-29T00:10:05;95759.47;;;12.75;71.66
76374;BME280;65197;50.164;8.012;2023-05-29T00:12:31;95757.09;;;12.72;71.79
76374;BME280;65197;50.164;8.012;2023-05-29T00:14:57;95768.25;;;12.71;72.74
76374;BME280;65197;50.164;8.012;2023-05-29T00:17:23;95762.28;;;12.71;72.08
76374;BME280;65197;50.164;8.012;2023-05-29T00:19:48;95765.09;;;12.66;73.02
76374;BME280;65197;50.164;8.012;2023-05-29T00:22:13;95770.84;;;12.70;72.88
76374;BME280;65197;50.164;8.012;2023-05-29T00:24:39;95764.25;;;12.66;73.14
76374;BME280;65197;50.164;8.012;2023-05-29T00:27:04;95757.28;;;12.52;73.75
76374;BME280;65197;50.164;8.012;2023-05-29T00:29:29;95774.38;;;12.52;74.18
76374;BME280;65197;50.164;8.012;2023-05-29T00:31:56;95773.13;;;12.43;74.53
76374;BME280;65197;50.164;8.012;2023-05-29T00:34:22;95751.56;;;12.31;74.54
76374;BME280;65197;50.164;8.012;2023-05-29T00:36:48;95761.91;;;12.30;74.53
76374;BME280;65197;50.164;8.012;2023-05-29T00:39:14;95769.31;;;12.34;74.61
76374;BME280;65197;50.164;8.012;2023-05-29T00:41:40;95765.19;;;12.32;74.90
76374;BME280;65197;50.164;8.012;2023-05-29T00:44:05;95765.66;;;12.22;75.04
76374;BME280;65197;50.164;8.012;2023-05-29T00:46:31;95770.28;;;12.32;74.45
76374;BME280;65197;50.164;8.012;2023-05-29T00:49:01;95738.25;;;12.24;73.92
76374;BME280;65197;50.164;8.012;2023-05-29T00:51:27;95753.31;;;12.31;73.61
76374;BME280;65197;50.164;8.012;2023-05-29T00:53:54;95769.00;;;12.40;73.75
76374;BME280;65197;50.164;8.012;2023-05-29T00:56:20;95773.28;;;12.40;73.49
76374;BME280;65197;50.164;8.012;2023-05-29T00:58:50;95762.38;;;12.36;73.18
76374;BME280;65197;50.164;8.012;2023-05-29T01:01:17;95754.81;;;12.35;73.31
76374;BME280;65197;50.164;8.012;2023-05-29T01:03:43;95753.13;;;12.34;73.87
76374;BME280;65197;50.164;8.012;2023-05-29T01:06:09;95751.72;;;12.28;74.23
76374;BME280;65197;50.164;8.012;2023-05-29T01:08:35;95754.47;;;12.25;74.54
76374;BME280;65197;50.164;8.012;2023-05-29T01:11:08;95764.84;;;12.22;75.32
76374;BME280;65197;50.164;8.012;2023-05-29T01:13:40;95759.19;;;12.15;76.21
76374;BME280;65197;50.164;8.012;2023-05-29T01:16:19;95757.84;;;12.08;76.58
76374;BME280;65197;50.164;8.012;2023-05-29T01:19:40;95766.00;;;11.99;77.54
76374;BME280;65197;50.164;8.012;2023-05-29T01:28:04;95742.69;;;11.70;78.69
76374;BME280;65197;50.164;8.012;2023-05-29T01:30:31;95732.75;;;11.64;78.70
76374;BME280;65197;50.164;8.012;2023-05-29T01:32:58;95761.75;;;11.81;79.07
76374;BME280;65197;50.164;8.012;2023-05-29T01:35:23;95744.19;;;11.75;78.57
76374;BME280;65197;50.164;8.012;2023-05-29T01:37:49;95759.28;;;11.79;79.16
76374;BME280;65197;50.164;8.012;2023-05-29T01:40:14;95760.09;;;11.80;79.71
76374;BME280;65197;50.164;8.012;2023-05-29T01:42:40;95757.00;;;11.73;80.10
76374;BME280;65197;50.164;8.012;2023-05-29T01:45:06;95755.00;;;11.62;80.24
76374;BME280;65197;50.164;8.012;2023-05-29T01:47:32;95761.59;;;11.66;80.60
76374;BME280;65197;50.164;8.012;2023-05-29T01:49:58;95740.41;;;11.47;80.73
76374;BME280;65197;50.164;8.012;2023-05-29T01:52:25;95753.94;;;11.49;81.53
76374;BME280;65197;50.164;8.012;2023-05-29T01:54:50;95757.91;;;11.55;81.37
76374;BME280;65197;50.164;8.012;2023-05-29T01:57:16;95752.16;;;11.51;80.93
76374;BME280;65197;50.164;8.012;2023-05-29T01:59:41;95749.66;;;11.50;81.37
76374;BME280;65197;50.164;8.012;2023-05-29T02:02:08;95745.75;;;11.42;81.57
76374;BME280;65197;50.164;8.012;2023-05-29T02:04:33;95750.84;;;11.42;81.78
76374;BME280;65197;50.164;8.012;2023-05-29T02:06:59;95749.56;;;11.34;82.43
76374;BME280;65197;50.164;8.012;2023-05-29T02:09:24;95742.94;;;11.30;82.83
76374;BME280;65197;50.164;8.012;2023-05-29T02:11:51;95733.31;;;11.17;83.21
76374;BME280;65197;50.164;8.012;2023-05-29T02:14:16;95737.13;;;11.09;83.56
76374;BME280;65197;50.164;8.012;2023-05-29T02:16:41;95736.28;;;11.08;84.54
76374;BME280;65197;50.164;8.012;2023-05-29T02:19:09;95742.16;;;11.10;84.81
76374;BME280;65197;50.164;8.012;2023-05-29T02:21:38;95745.88;;;11.03;84.65
76374;BME280;65197;50.164;8.012;2023-05-29T02:24:04;95751.81;;;11.04;84.89
76374;BME280;65197;50.164;8.012;2023-05-29T02:26:30;95722.88;;;10.86;85.38
76374;BME280;65197;50.164;8.012;2023-05-29T02:28:55;95745.50;;;10.93;85.53
76374;BME280;65197;50.164;8.012;2023-05-29T02:31:21;95754.13;;;10.91;86.50
76374;BME280;65197;50.164;8.012;2023-05-29T02:33:46;95736.53;;;10.85;86.08
76374;BME280;65197;50.164;8.012;2023-05-29T02:36:11;95732.41;;;10.82;86.20
76374;BME280;65197;50.164;8.012;2023-05-29T02:38:37;95745.63;;;10.90;86.19
76374;BME280;65197;50.164;8.012;2023-05-29T02:41:03;95737.56;;;10.81;86.72
76374;BME280;65197;50.164;8.012;2023-05-29T02:43:28;95747.03;;;10.79;87.48
76374;BME280;65197;50.164;8.012;2023-05-29T02:45:53;95737.78;;;10.76;86.94
76374;BME280;65197;50.164;8.012;2023-05-29T02:48:19;95732.84;;;10.73;87.44
76374;BME280;65197;50.164;8.012;2023-05-29T02:50:44;95735.72;;;10.65;87.88
76374;BME280;65197;50.164;8.012;2023-05-29T02:53:10;95734.31;;;10.58;88.49
76374;BME280;65197;50.164;8.012;2023-05-29T02:55:35;95727.16;;;10.48;89.10
76374;BME280;65197;50.164;8.012;2023-05-29T02:58:01;95747.84;;;10.60;89.07
76374;BME280;65197;50.164;8.012;2023-05-29T03:00:27;95753.09;;;10.57;89.35
76374;BME280;65197;50.164;8.012;2023-05-29T03:02:54;95755.13;;;10.49;89.93
76374;BME280;65197;50.164;8.012;2023-05-29T03:05:20;95743.69;;;10.39;90.53
76374;BME280;65197;50.164;8.012;2023-05-29T03:07:45;95755.69;;;10.37;91.47
76374;BME280;65197;50.164;8.012;2023-05-29T03:10:11;95747.66;;;10.26;92.01
76374;BME280;65197;50.164;8.012;2023-05-29T03:12:37;95764.38;;;10.33;92.37
76374;BME280;65197;50.164;8.012;2023-05-29T03:15:02;95751.81;;;10.28;93.04
76374;BME280;65197;50.164;8.012;2023-05-29T03:17:28;95764.66;;;10.27;93.13
76374;BME280;65197;50.164;8.012;2023-05-29T03:19:53;95760.38;;;10.27;93.29
76374;BME280;65197;50.164;8.012;2023-05-29T03:22:19;95763.63;;;10.31;93.43
76374;BME280;65197;50.164;8.012;2023-05-29T03:24:44;95758.72;;;10.26;93.99
76374;BME280;65197;50.164;8.012;2023-05-29T03:27:09;95756.34;;;10.22;94.83
76374;BME280;65197;50.164;8.012;2023-05-29T03:29:35;95756.25;;;10.23;94.71
76374;BME280;65197;50.164;8.012;2023-05-29T03:32:01;95766.16;;;10.31;94.79
76374;BME280;65197;50.164;8.012;2023-05-29T03:34:27;95759.63;;;10.24;95.46
76374;BME280;65197;50.164;8.012;2023-05-29T03:36:53;95755.56;;;10.19;96.08
76374;BME280;65197;50.164;8.012;2023-05-29T03:39:18;95749.00;;;10.14;95.76
76374;BME280;65197;50.164;8.012;2023-05-29T03:41:44;95763.22;;;10.19;96.13
76374;BME280;65197;50.164;8.012;2023-05-29T03:44:09;95741.69;;;10.06;96.55
76374;BME280;65197;50.164;8.012;2023-05-29T03:46:35;95773.28;;;10.23;96.84
76374;BME280;65197;50.164;8.012;2023-05-29T03:49:00;95755.06;;;10.11;96.80
76374;BME280;65197;50.164;8.012;2023-05-29T03:51:25;95772.22;;;10.28;97.26
76374;BME280;65197;50.164;8.012;2023-05-29T03:53:51;95764.66;;;10.27;97.97
76374;BME280;65197;50.164;8.012;2023-05-29T03:56:16;95767.81;;;10.32;97.59
76374;BME280;65197;50.164;8.012;2023-05-29T03:58:42;95775.97;;;10.40;97.65
76374;BME280;65197;50.164;8.012;2023-05-29T04:01:07;95787.41;;;10.50;97.58
76374;BME280;65197;50.164;8.012;2023-05-29T04:03:34;95777.13;;;10.52;97.38
76374;BME280;65197;50.164;8.012;2023-05-29T04:06:00;95791.09;;;10.63;97.13
76374;BME280;65197;50.164;8.012;2023-05-29T04:08:25;95782.03;;;10.56;97.46
76374;BME280;65197;50.164;8.012;2023-05-29T04:10:51;95790.72;;;10.71;96.77
76374;BME280;65197;50.164;8.012;2023-05-29T04:13:19;95795.78;;;10.73;96.92
76374;BME280;65197;50.164;8.012;2023-05-29T04:15:45;95808.13;;;10.82;97.14
76374;BME280;65197;50.164;8.012;2023-05-29T04:18:11;95801.91;;;10.87;96.25
76374;BME280;65197;50.164;8.012;2023-05-29T04:20:36;95796.81;;;10.87;95.79
76374;BME280;65197;50.164;8.012;2023-05-29T04:23:01;95812.53;;;10.97;95.93
76374;BME280;65197;50.164;8.012;2023-05-29T04:25:27;95816.22;;;11.09;95.90
76374;BME280;65197;50.164;8.012;2023-05-29T04:27:52;95785.50;;;10.93;95.91
76374;BME280;65197;50.164;8.012;2023-05-29T04:30:18;95818.44;;;11.16;95.34
76374;BME280;65197;50.164;8.012;2023-05-29T04:32:43;95826.41;;;11.28;95.12
76374;BME280;65197;50.164;8.012;2023-05-29T04:35:09;95832.78;;;11.38;94.60
76374;BME280;65197;50.164;8.012;2023-05-29T04:37:35;95837.72;;;11.41;94.89
76374;BME280;65197;50.164;8.012;2023-05-29T04:40:05;95840.63;;;11.52;94.12
76374;BME280;65197;50.164;8.012;2023-05-29T04:42:35;95824.97;;;11.41;93.86
76374;BME280;65197;50.164;8.012;2023-05-29T04:45:01;95838.06;;;11.52;93.79
76374;BME280;65197;50.164;8.012;2023-05-29T04:47:26;95842.66;;;11.63;93.47
76374;BME280;65197;50.164;8.012;2023-05-29T04:49:53;95848.47;;;11.66;93.68
76374;BME280;65197;50.164;8.012;2023-05-29T04:52:18;95805.13;;;11.46;93.85
76374;BME280;65197;50.164;8.012;2023-05-29T04:54:46;95845.59;;;11.72;93.49
76374;BME280;65197;50.164;8.012;2023-05-29T04:57:11;95854.06;;;11.92;93.41
76374;BME280;65197;50.164;8.012;2023-05-29T04:59:37;95859.97;;;12.11;92.49
76374;BME280;65197;50.164;8.012;2023-05-29T05:02:02;95864.78;;;12.17;91.62
76374;BME280;65197;50.164;8.012;2023-05-29T05:04:28;95852.00;;;12.17;92.54
76374;BME280;65197;50.164;8.012;2023-05-29T05:06:55;95841.06;;;11.96;91.95
76374;BME280;65197;50.164;8.012;2023-05-29T05:09:20;95853.78;;;12.15;91.73
76374;BME280;65197;50.164;8.012;2023-05-29T05:11:46;95849.75;;;12.11;91.22
76374;BME280;65197;50.164;8.012;2023-05-29T05:14:11;95864.31;;;12.27;91.37
76374;BME280;65197;50.164;8.012;2023-05-29T05:16:36;95870.75;;;12.34;90.73
76374;BME280;65197;50.164;8.012;2023-05-29T05:19:02;95862.03;;;12.38;90.82
76374;BME280;65197;50.164;8.012;2023-05-29T05:21:27;95867.28;;;12.52;89.79
76374;BME280;65197;50.164;8.012;2023-05-29T05:23:56;95865.88;;;12.46;89.62
76374;BME280;65197;50.164;8.012;2023-05-29T05:26:21;95870.41;;;12.74;89.00
76374;BME280;65197;50.164;8.012;2023-05-29T05:28:47;95857.69;;;12.57;88.89
76374;BME280;65197;50.164;8.012;2023-05-29T05:31:12;95854.22;;;12.58;88.75
76374;BME280;65197;50.164;8.012;2023-05-29T05:33:38;95853.75;;;12.67;88.84
76374;BME280;65197;50.164;8.012;2023-05-29T05:36:03;95872.78;;;12.95;87.62
76374;BME280;65197;50.164;8.012;2023-05-29T05:38:29;95867.19;;;13.04;87.97
76374;BME280;65197;50.164;8.012;2023-05-29T05:40:54;95863.56;;;13.08;87.75
76374;BME280;65197;50.164;8.012;2023-05-29T05:43:21;95858.78;;;13.18;86.50
76374;BME280;65197;50.164;8.012;2023-05-29T05:45:47;95870.41;;;13.41;85.38
76374;BME280;65197;50.164;8.012;2023-05-29T05:48:12;95849.22;;;13.53;84.65
76374;BME280;65197;50.164;8.012;2023-05-29T05:50:38;95865.66;;;13.49;83.87
76374;BME280;65197;50.164;8.012;2023-05-29T05:53:03;95850.22;;;13.50;83.76
76374;BME280;65197;50.164;8.012;2023-05-29T05:55:28;95872.66;;;13.77;84.26
76374;BME280;65197;50.164;8.012;2023-05-29T05:57:54;95865.41;;;14.15;81.34
76374;BME280;65197;50.164;8.012;2023-05-29T06:00:22;95851.22;;;14.24;80.38
76374;BME280;65197;50.164;8.012;2023-05-29T06:02:48;95866.19;;;14.76;78.44
76374;BME280;65197;50.164;8.012;2023-05-29T06:05:13;95855.72;;;14.93;76.80
76374;BME280;65197;50.164;8.012;2023-05-29T06:07:39;95866.63;;;14.97;77.19
76374;BME280;65197;50.164;8.012;2023-05-29T06:10:05;95863.78;;;15.30;75.16
76374;BME280;65197;50.164;8.012;2023-05-29T06:12:30;95858.25;;;15.36;73.36
76374;BME280;65197;50.164;8.012;2023-05-29T06:14:56;95873.81;;;15.47;72.84
76374;BME280;65197;50.164;8.012;2023-05-29T06:17:22;95869.53;;;15.75;72.17
76374;BME280;65197;50.164;8.012;2023-05-29T06:19:49;95868.00;;;16.12;70.47
76374;BME280;65197;50.164;8.012;2023-05-29T06:22:14;95879.03;;;16.14;69.30
76374;BME280;65197;50.164;8.012;2023-05-29T06:24:40;95883.31;;;16.41;68.14
76374;BME280;65197;50.164;8.012;2023-05-29T06:27:05;95884.38;;;16.51;68.20
76374;BME280;65197;50.164;8.012;2023-05-29T06:29:32;95879.38;;;16.75;66.16
76374;BME280;65197;50.164;8.012;2023-05-29T06:31:57;95891.50;;;16.20;68.00
76374;BME280;65197;50.164;8.012;2023-05-29T06:34:23;95870.97;;;16.46;67.33
76374;BME280;65197;50.164;8.012;2023-05-29T06:36:48;95884.75;;;16.45;66.78
76374;BME280;65197;50.164;8.012;2023-05-29T06:39:14;95879.84;;;17.18;64.36
76374;BME280;65197;50.164;8.012;2023-05-29T06:41:40;95885.84;;;16.93;65.03
76374;BME280;65197;50.164;8.012;2023-05-29T06:44:06;95872.34;;;17.02;64.65
76374;BME280;65197;50.164;8.012;2023-05-29T06:46:31;95889.75;;;17.24;64.21
76374;BME280;65197;50.164;8.012;2023-05-29T06:48:56;95880.28;;;17.49;63.58
76374;BME280;65197;50.164;8.012;2023-05-29T06:51:22;95893.25;;;17.60;62.19
76374;BME280;65197;50.164;8.012;2023-05-29T06:53:47;95879.72;;;17.69;60.77
76374;BME280;65197;50.164;8.012;2023-05-29T06:56:13;95890.25;;;17.66;61.00
76374;BME280;65197;50.164;8.012;2023-05-29T06:58:38;95885.56;;;18.08;60.00
76374;BME280;65197;50.164;8.012;2023-05-29T07:01:04;95883.31;;;18.03;59.91
76374;BME280;65197;50.164;8.012;2023-05-29T07:03:30;95881.97;;;18.57;58.77
76374;BME280;65197;50.164;8.012;2023-05-29T07:05:55;95889.59;;;18.12;59.52
76374;BME280;65197;50.164;8.012;2023-05-29T07:08:21;95895.06;;;18.43;59.05
76374;BME280;65197;50.164;8.012;2023-05-29T07:10:47;95895.91;;;18.90;57.50
76374;BME280;65197;50.164;8.012;2023-05-29T07:13:16;95898.19;;;18.59;57.75
76374;BME280;65197;50.164;8.012;2023-05-29T07:15:43;95901.00;;;18.67;57.30
76374;BME280;65197;50.164;8.012;2023-05-29T07:18:08;95901.19;;;18.88;56.56
76374;BME280;65197;50.164;8.012;2023-05-29T07:20:33;95890.34;;;18.72;57.69
76374;BME280;65197;50.164;8.012;2023-05-29T07:22:59;95915.59;;;18.33;57.72
76374;BME280;65197;50.164;8.012;2023-05-29T07:25:25;95911.31;;;18.56;57.91
76374;BME280;65197;50.164;8.012;2023-05-29T07:27:51;95913.78;;;18.57;57.83
76374;BME280;65197;50.164;8.012;2023-05-29T07:30:16;95913.19;;;18.54;57.25
76374;BME280;65197;50.164;8.012;2023-05-29T07:32:43;95906.22;;;18.43;57.47
76374;BME280;65197;50.164;8.012;2023-05-29T07:35:08;95909.88;;;18.41;57.78
76374;BME280;65197;50.164;8.012;2023-05-29T07:37:34;95908.03;;;18.54;58.34
76374;BME280;65197;50.164;8.012;2023-05-29T07:40:00;95920.47;;;18.49;58.56
76374;BME280;65197;50.164;8.012;2023-05-29T07:42:25;95905.53;;;18.52;58.79
76374;BME280;65197;50.164;8.012;2023-05-29T07:44:50;95904.44;;;18.32;59.41
76374;BME280;65197;50.164;8.012;2023-05-29T07:47:16;95912.16;;;18.21;59.85
76374;BME280;65197;50.164;8.012;2023-05-29T07:49:42;95914.66;;;18.10;59.67
76374;BME280;65197;50.164;8.012;2023-05-29T07:52:07;95923.28;;;17.98;60.68
76374;BME280;65197;50.164;8.012;2023-05-29T07:54:33;95926.06;;;18.43;60.82
76374;BME280;65197;50.164;8.012;2023-05-29T07:56:59;95925.38;;;18.52;58.70
76374;BME280;65197;50.164;8.012;2023-05-29T07:59:25;95921.16;;;18.51;59.33
76374;BME280;65197;50.164;8.012;2023-05-29T08:01:51;95907.78;;;18.92;58.81
76374;BME280;65197;50.164;8.012;2023-05-29T08:04:16;95914.03;;;19.12;57.66
76374;BME280;65197;50.164;8.012;2023-05-29T08:06:42;95916.56;;;18.90;57.76
76374;BME280;65197;50.164;8.012;2023-05-29T08:09:09;95923.63;;;18.99;56.53
76374;BME280;65197;50.164;8.012;2023-05-29T08:11:36;95920.56;;;18.47;58.58
76374;BME280;65197;50.164;8.012;2023-05-29T08:14:01;95908.94;;;18.42;59.66
76374;BME280;65197;50.164;8.012;2023-05-29T08:16:27;95923.38;;;18.79;61.19
76374;BME280;65197;50.164;8.012;2023-05-29T08:18:53;95909.28;;;18.83;57.12
76374;BME280;65197;50.164;8.012;2023-05-29T08:21:18;95919.31;;;19.22;57.22
76374;BME280;65197;50.164;8.012;2023-05-29T08:23:44;95909.56;;;19.25;55.89
76374;BME280;65197;50.164;8.012;2023-05-29T08:26:09;95920.41;;;19.42;56.97
76374;BME280;65197;50.164;8.012;2023-05-29T08:28:35;95924.44;;;20.00;55.84
76374;BME280;65197;50.164;8.012;2023-05-29T08:31:00;95921.69;;;20.13;54.51
76374;BME280;65197;50.164;8.012;2023-05-29T08:33:26;95913.84;;;20.03;53.22
76374;BME280;65197;50.164;8.012;2023-05-29T08:35:51;95914.03;;;19.57;52.00
76374;BME280;65197;50.164;8.012;2023-05-29T08:38:17;95923.19;;;19.50;55.06
76374;BME280;65197;50.164;8.012;2023-05-29T08:40:42;95922.47;;;19.59;55.48
76374;BME280;65197;50.164;8.012;2023-05-29T08:43:18;95924.09;;;19.82;53.40
76374;BME280;65197;50.164;8.012;2023-05-29T08:45:47;95927.84;;;20.01;52.83
76374;BME280;65197;50.164;8.012;2023-05-29T08:48:13;95931.88;;;19.82;53.79
76374;BME280;65197;50.164;8.012;2023-05-29T08:50:43;95928.50;;;20.14;52.59
76374;BME280;65197;50.164;8.012;2023-05-29T08:53:10;95936.09;;;20.06;53.14
76374;BME280;65197;50.164;8.012;2023-05-29T08:55:36;95901.28;;;20.52;52.04
76374;BME280;65197;50.164;8.012;2023-05-29T08:58:02;95934.06;;;20.53;49.24
76374;BME280;65197;50.164;8.012;2023-05-29T09:00:28;95939.75;;;20.24;50.67
76374;BME280;65197;50.164;8.012;2023-05-29T09:02:54;95942.41;;;20.77;50.33
76374;BME280;65197;50.164;8.012;2023-05-29T09:05:20;95927.47;;;20.91;48.25
76374;BME280;65197;50.164;8.012;2023-05-29T09:07:48;95920.94;;;21.48;48.38
76374;BME280;65197;50.164;8.012;2023-05-29T09:10:14;95924.59;;;21.76;47.26
76374;BME280;65197;50.164;8.012;2023-05-29T09:12:40;95923.88;;;21.64;46.37
76374;BME280;65197;50.164;8.012;2023-05-29T09:15:22;95921.28;;;21.64;47.27
76374;BME280;65197;50.164;8.012;2023-05-29T09:17:55;95932.41;;;21.35;48.57
76374;BME280;65197;50.164;8.012;2023-05-29T09:20:23;95925.59;;;22.04;46.90
76374;BME280;65197;50.164;8.012;2023-05-29T09:23:08;95921.97;;;22.35;45.82
76374;BME280;65197;50.164;8.012;2023-05-29T09:25:39;95940.41;;;22.13;45.02
76374;BME280;65197;50.164;8.012;2023-05-29T09:28:06;95935.88;;;21.96;44.62
76374;BME280;65197;50.164;8.012;2023-05-29T09:30:39;95924.44;;;21.68;46.28
76374;BME280;65197;50.164;8.012;2023-05-29T09:33:07;95931.13;;;21.70;43.29
76374;BME280;65197;50.164;8.012;2023-05-29T09:37:59;95938.50;;;21.65;44.31
76374;BME280;65197;50.164;8.012;2023-05-29T09:40:25;95938.56;;;21.23;47.97
76374;BME280;65197;50.164;8.012;2023-05-29T09:42:50;95903.78;;;20.74;45.50
76374;BME280;65197;50.164;8.012;2023-05-29T09:45:20;95946.41;;;21.54;46.69
76374;BME280;65197;50.164;8.012;2023-05-29T09:47:46;95937.88;;;21.21;45.55
76374;BME280;65197;50.164;8.012;2023-05-29T09:50:19;95933.16;;;21.26;45.92
76374;BME280;65197;50.164;8.012;2023-05-29T09:52:48;95928.13;;;21.65;45.00
76374;BME280;65197;50.164;8.012;2023-05-29T09:55:18;95925.66;;;21.64;45.66
76374;BME280;65197;50.164;8.012;2023-05-29T09:57:46;95919.34;;;21.56;46.24
76374;BME280;65197;50.164;8.012;2023-05-29T10:00:14;95920.28;;;21.96;46.64
76374;BME280;65197;50.164;8.012;2023-05-29T10:02:41;95940.09;;;21.97;45.04
76374;BME280;65197;50.164;8.012;2023-05-29T10:05:07;95941.75;;;21.57;44.24
76374;BME280;65197;50.164;8.012;2023-05-29T10:07:37;95934.13;;;22.16;46.26
76374;BME280;65197;50.164;8.012;2023-05-29T10:10:09;95934.97;;;22.35;43.82
76374;BME280;65197;50.164;8.012;2023-05-29T10:12:37;95940.72;;;22.39;41.94
76374;BME280;65197;50.164;8.012;2023-05-29T10:15:07;95941.25;;;22.23;41.34
76374;BME280;65197;50.164;8.012;2023-05-29T10:17:36;95938.59;;;23.10;41.77
76374;BME280;65197;50.164;8.012;2023-05-29T10:20:06;95944.94;;;22.69;40.13
76374;BME280;65197;50.164;8.012;2023-05-29T10:22:36;95946.03;;;22.67;39.00
76374;BME280;65197;50.164;8.012;2023-05-29T10:25:05;95942.06;;;23.38;39.32
76374;BME280;65197;50.164;8.012;2023-05-29T10:27:33;95946.31;;;22.73;39.82
76374;BME280;65197;50.164;8.012;2023-05-29T10:30:11;95944.66;;;22.14;40.45
76374;BME280;65197;50.164;8.012;2023-05-29T10:32:44;95945.00;;;21.50;41.59
76374;BME280;65197;50.164;8.012;2023-05-29T10:35:56;95942.94;;;21.94;42.34
76374;BME280;65197;50.164;8.012;2023-05-29T10:38:25;95936.94;;;23.19;40.72
76374;BME280;65197;50.164;8.012;2023-05-29T10:40:51;95947.94;;;22.16;41.58
76374;BME280;65197;50.164;8.012;2023-05-29T10:43:33;95946.88;;;22.28;40.39
76374;BME280;65197;50.164;8.012;2023-05-29T10:46:02;95941.59;;;21.99;40.49
76374;BME280;65197;50.164;8.012;2023-05-29T10:50:54;95941.38;;;22.31;41.43
76374;BME280;65197;50.164;8.012;2023-05-29T10:55:54;95920.03;;;23.70;39.68
76374;BME280;65197;50.164;8.012;2023-05-29T11:00:47;95940.97;;;22.84;35.09
76374;BME280;65197;50.164;8.012;2023-05-29T11:03:30;95934.59;;;23.26;37.29
76374;BME280;65197;50.164;8.012;2023-05-29T11:06:02;95919.94;;;23.34;35.84
76374;BME280;65197;50.164;8.012;2023-05-29T11:11:03;95930.59;;;23.96;35.50
76374;BME280;65197;50.164;8.012;2023-05-29T11:13:35;95934.56;;;23.73;36.89
76374;BME280;65197;50.164;8.012;2023-05-29T11:18:31;95922.09;;;23.76;36.57
76374;BME280;65197;50.164;8.012;2023-05-29T11:20:58;95928.31;;;24.11;35.44
76374;BME280;65197;50.164;8.012;2023-05-29T11:23:31;95926.25;;;23.22;32.19
76374;BME280;65197;50.164;8.012;2023-05-29T11:25:57;95913.09;;;23.24;35.30
76374;BME280;65197;50.164;8.012;2023-05-29T11:28:24;95941.13;;;22.63;33.12
76374;BME280;65197;50.164;8.012;2023-05-29T11:30:49;95931.00;;;22.31;34.21
76374;BME280;65197;50.164;8.012;2023-05-29T11:33:36;95917.97;;;23.36;32.94
76374;BME280;65197;50.164;8.012;2023-05-29T11:36:05;95915.50;;;23.45;31.80
76374;BME280;65197;50.164;8.012;2023-05-29T11:38:31;95915.78;;;22.85;32.38
76374;BME280;65197;50.164;8.012;2023-05-29T11:40:57;95926.34;;;22.83;32.81
76374;BME280;65197;50.164;8.012;2023-05-29T11:43:25;95934.53;;;22.88;32.63
76374;BME280;65197;50.164;8.012;2023-05-29T11:45:51;95927.31;;;23.29;31.85
76374;BME280;65197;50.164;8.012;2023-05-29T11:48:16;95932.06;;;22.87;34.33
76374;BME280;65197;50.164;8.012;2023-05-29T11:50:41;95918.00;;;22.70;35.02
76374;BME280;65197;50.164;8.012;2023-05-29T11:53:08;95921.97;;;22.55;35.78
76374;BME280;65197;50.164;8.012;2023-05-29T11:55:34;95924.16;;;22.50;37.63
76374;BME280;65197;50.164;8.012;2023-05-29T11:58:02;95926.97;;;22.08;36.71
76374;BME280;65197;50.164;8.012;2023-05-29T12:00:33;95924.16;;;22.30;36.08
76374;BME280;65197;50.164;8.012;2023-05-29T12:02:59;95920.03;;;22.18;37.16
76374;BME280;65197;50.164;8.012;2023-05-29T12:05:48;95911.44;;;22.27;36.97
76374;BME280;65197;50.164;8.012;2023-05-29T12:08:14;95913.50;;;22.14;36.36
76374;BME280;65197;50.164;8.012;2023-05-29T12:10:49;95925.16;;;21.79;36.65
76374;BME280;65197;50.164;8.012;2023-05-29T12:13:15;95925.09;;;22.10;36.47
76374;BME280;65197;50.164;8.012;2023-05-29T12:15:44;95924.88;;;22.32;35.45
76374;BME280;65197;50.164;8.012;2023-05-29T12:18:10;95911.25;;;22.77;34.03
76374;BME280;65197;50.164;8.012;2023-05-29T12:20:36;95912.03;;;23.17;36.33
76374;BME280;65197;50.164;8.012;2023-05-29T12:23:02;95916.69;;;23.13;33.97
76374;BME280;65197;50.164;8.012;2023-05-29T12:25:28;95920.00;;;23.05;34.36
76374;BME280;65197;50.164;8.012;2023-05-29T12:27:55;95910.84;;;23.38;33.16
76374;BME280;65197;50.164;8.012;2023-05-29T12:30:23;95908.63;;;23.16;32.68
76374;BME280;65197;50.164;8.012;2023-05-29T12:32:50;95890.16;;;23.00;32.66
76374;BME280;65197;50.164;8.012;2023-05-29T12:37:46;95917.41;;;23.05;32.21
76374;BME280;65197;50.164;8.012;2023-05-29T12:40:19;95897.38;;;23.53;32.45
76374;BME280;65197;50.164;8.012;2023-05-29T12:42:53;95891.97;;;23.36;32.57
76374;BME280;65197;50.164;8.012;2023-05-29T12:45:19;95916.38;;;23.26;32.90
76374;BME280;65197;50.164;8.012;2023-05-29T12:47:56;95904.66;;;23.12;33.57
76374;BME280;65197;50.164;8.012;2023-05-29T12:50:25;95908.38;;;23.37;32.94
76374;BME280;65197;50.164;8.012;2023-05-29T12:52:59;95921.34;;;23.09;31.69
76374;BME280;65197;50.164;8.012;2023-05-29T12:55:26;95915.81;;;23.32;33.13
76374;BME280;65197;50.164;8.012;2023-05-29T12:57:51;95917.00;;;22.81;33.47
76374;BME280;65197;50.164;8.012;2023-05-29T13:00:18;95916.78;;;22.35;32.17
76374;BME280;65197;50.164;8.012;2023-05-29T13:02:46;95913.22;;;22.56;31.64
76374;BME280;65197;50.164;8.012;2023-05-29T13:05:11;95906.91;;;22.97;36.39
76374;BME280;65197;50.164;8.012;2023-05-29T13:07:37;95915.38;;;22.99;32.26
76374;BME280;65197;50.164;8.012;2023-05-29T13:10:02;95905.25;;;23.61;32.66
76374;BME280;65197;50.164;8.012;2023-05-29T13:12:28;95912.38;;;24.14;32.41
76374;BME280;65197;50.164;8.012;2023-05-29T13:14:53;95899.13;;;24.61;30.27
76374;BME280;65197;50.164;8.012;2023-05-29T13:17:21;95908.78;;;24.43;32.43
76374;BME280;65197;50.164;8.012;2023-05-29T13:19:46;95900.19;;;24.14;31.26
76374;BME280;65197;50.164;8.012;2023-05-29T13:22:12;95908.72;;;23.52;31.60